Annis, Idaho
Current Conditions -  °F | °C
As of 10:18 PM on Saturday 22 Nov 2014 (Local Time) from KRXE Reporting Station
Broken Clouds Broken Clouds  
Wind Chill: 24°   Ceiling: 1000
Heat Index: 32°   Visibility: 10mi
Dew Point: 29°   Wind: 10mph
Humidity: 88%   Direction: 200°SSW
Pressure: 29.79"   Gusts: NA
Location:  43.6749°N, 111.89°W
Report Text: KRXE 230518Z AUTO 20009KT 10SM BKN010 00/M02 A2979 RMK AO2 T00001017
Loading
Personal Weather Stations






























Interactive Weather Map New forecast layout! Learn more

10-Day Weather Forecast

Advertisements
Track Severe Weather on mobile